createdAt,value
2019-04-10T00:01:51.178Z,87.00
2019-04-10T00:04:21.262Z,85.70
2019-04-10T00:06:50.401Z,85.90
2019-04-10T00:09:21.133Z,85.70
2019-04-10T00:11:53.467Z,85.60
2019-04-10T00:14:22.655Z,85.70
2019-04-10T00:16:52.238Z,84.70
2019-04-10T00:19:22.402Z,84.40
2019-04-10T00:21:53.575Z,84.40
2019-04-10T00:24:22.734Z,84.20
2019-04-10T00:26:52.273Z,84.00
2019-04-10T00:29:22.395Z,83.90
2019-04-10T00:31:51.518Z,83.50
2019-04-10T00:34:21.613Z,83.40
2019-04-10T00:36:53.354Z,84.10
2019-04-10T00:39:27.655Z,83.70
2019-04-10T00:41:53.393Z,83.20
2019-04-10T00:44:23.660Z,82.90
2019-04-10T00:46:52.855Z,83.10
2019-04-10T00:49:23.933Z,83.20
2019-04-10T00:51:55.548Z,83.00
2019-04-10T00:54:25.892Z,83.00
2019-04-10T00:56:54.995Z,82.50
2019-04-10T00:59:24.191Z,82.70
2019-04-10T01:01:54.564Z,82.50
2019-04-10T01:04:24.703Z,82.20
2019-04-10T01:06:54.528Z,82.60
2019-04-10T01:09:23.988Z,81.80
2019-04-10T01:11:55.245Z,82.00
2019-04-10T01:14:25.236Z,81.20
2019-04-10T01:16:57.874Z,81.40
2019-04-10T01:19:28.082Z,81.20
2019-04-10T01:21:57.230Z,81.00
2019-04-10T01:24:27.913Z,81.50
2019-04-10T01:26:57.315Z,81.10
2019-04-10T01:29:27.263Z,81.00
2019-04-10T01:31:59.528Z,80.70
2019-04-10T01:34:29.544Z,81.10
2019-04-10T01:36:59.219Z,80.50
2019-04-10T01:39:30.526Z,80.80
2019-04-10T01:42:00.579Z,81.20
2019-04-10T01:44:30.832Z,81.40
2019-04-10T01:47:00.715Z,81.30
2019-04-10T01:49:29.986Z,79.80
2019-04-10T01:51:59.478Z,79.70
2019-04-10T01:54:28.712Z,79.70
2019-04-10T01:56:59.717Z,79.30
2019-04-10T01:59:30.558Z,79.30
2019-04-10T02:02:05.927Z,79.30
2019-04-10T02:04:37.646Z,79.30
2019-04-10T02:07:08.082Z,79.50
2019-04-10T02:09:37.239Z,79.50
2019-04-10T02:12:06.398Z,79.80
2019-04-10T02:14:36.426Z,80.30
2019-04-10T02:17:06.441Z,80.00
2019-04-10T02:19:36.454Z,80.40
2019-04-10T02:22:06.499Z,80.60
2019-04-10T02:24:35.671Z,81.30
2019-04-10T02:27:05.749Z,81.10
2019-04-10T02:29:35.666Z,81.70
2019-04-10T02:32:04.834Z,82.40
2019-04-10T02:34:33.951Z,82.50
2019-04-10T02:37:03.185Z,82.20
2019-04-10T02:39:39.880Z,80.80
2019-04-10T02:42:03.636Z,80.10
2019-04-10T02:44:33.135Z,80.30
2019-04-10T02:47:02.837Z,80.10
2019-04-10T02:49:36.563Z,79.20
2019-04-10T02:54:39.752Z,79.10
2019-04-10T02:57:11.396Z,79.20
2019-04-10T02:59:43.178Z,79.10
2019-04-10T03:02:14.012Z,78.60
2019-04-10T03:04:44.514Z,78.60
2019-04-10T03:07:15.896Z,78.10
2019-04-10T03:10:00.530Z,77.40
2019-04-10T03:12:19.753Z,77.10
2019-04-10T03:14:49.857Z,76.90
2019-04-10T03:17:21.458Z,76.40
2019-04-10T03:19:50.556Z,76.50
2019-04-10T03:22:20.760Z,77.20
2019-04-10T03:24:50.667Z,77.30
2019-04-10T03:27:20.557Z,77.50
2019-04-10T03:29:49.707Z,77.10
2019-04-10T03:32:40.753Z,77.80
2019-04-10T03:35:28.738Z,77.00
2019-04-10T03:37:57.861Z,77.10
2019-04-10T03:40:27.190Z,77.30
2019-04-10T03:42:57.301Z,76.30
2019-04-10T03:45:30.746Z,76.90
2019-04-10T03:48:02.195Z,76.20
2019-04-10T03:50:32.024Z,76.70
2019-04-10T03:53:03.497Z,76.30
2019-04-10T03:55:32.763Z,76.20
2019-04-10T03:58:03.961Z,76.70
2019-04-10T04:00:34.168Z,76.50
2019-04-10T04:03:05.034Z,76.70
2019-04-10T04:05:34.984Z,76.60
2019-04-10T04:08:05.514Z,76.60
2019-04-10T04:10:35.083Z,76.90
2019-04-10T04:13:05.772Z,76.60
2019-04-10T04:15:35.807Z,76.50
2019-04-10T04:18:05.116Z,76.30
2019-04-10T04:20:35.853Z,76.10
2019-04-10T04:23:06.158Z,76.20
2019-04-10T04:25:38.685Z,76.40
2019-04-10T04:28:08.758Z,76.40
2019-04-10T04:30:40.407Z,76.20
2019-04-10T04:33:13.011Z,76.10
2019-04-10T04:35:44.646Z,76.50
2019-04-10T04:38:16.313Z,77.10
2019-04-10T04:40:48.401Z,76.90
2019-04-10T04:43:18.730Z,76.70
2019-04-10T04:45:49.156Z,76.40
2019-04-10T04:48:21.961Z,76.70
2019-04-10T04:50:52.239Z,77.00
2019-04-10T04:53:22.413Z,77.10
2019-04-10T04:55:55.461Z,76.90
2019-04-10T04:58:26.344Z,77.30
2019-04-10T05:00:57.122Z,78.40
2019-04-10T05:03:29.109Z,78.50
2019-04-10T05:06:03.764Z,78.50
2019-04-10T05:08:35.658Z,78.50
2019-04-10T05:11:06.312Z,78.60
2019-04-10T05:13:38.698Z,79.10
2019-04-10T05:16:08.196Z,79.10
2019-04-10T05:18:40.334Z,78.90
2019-04-10T05:21:14.133Z,78.80
2019-04-10T05:23:47.474Z,77.90
2019-04-10T05:26:22.729Z,78.00
2019-04-10T05:29:04.950Z,77.20
2019-04-10T05:31:36.396Z,77.10
2019-04-10T05:34:05.555Z,77.80
2019-04-10T05:36:47.010Z,77.80
2019-04-10T05:39:16.861Z,77.80
2019-04-10T05:41:47.088Z,78.40
2019-04-10T05:44:17.970Z,78.80
2019-04-10T05:46:49.136Z,78.60
2019-04-10T05:49:18.769Z,79.00
2019-04-10T05:51:57.621Z,79.50
2019-04-10T05:54:28.147Z,79.40
2019-04-10T05:57:01.092Z,78.60
2019-04-10T05:59:34.185Z,78.10
2019-04-10T06:02:06.401Z,78.20
2019-04-10T06:04:37.805Z,78.40
2019-04-10T06:07:11.273Z,78.40
2019-04-10T06:09:54.006Z,78.90
2019-04-10T06:12:18.064Z,78.60
2019-04-10T06:14:48.577Z,78.40
2019-04-10T06:17:18.391Z,77.50
2019-04-10T06:19:56.601Z,77.20
2019-04-10T06:22:30.421Z,76.40
2019-04-10T06:25:12.878Z,75.00
2019-04-10T06:27:46.550Z,75.20
2019-04-10T06:30:23.900Z,74.70
2019-04-10T06:33:00.013Z,74.30
2019-04-10T06:35:30.379Z,74.60
2019-04-10T06:38:07.181Z,73.90
2019-04-10T06:40:36.280Z,73.70
2019-04-10T06:43:06.577Z,73.70
2019-04-10T06:45:35.872Z,73.40
2019-04-10T06:48:06.837Z,72.40
2019-04-10T06:50:39.153Z,72.70
2019-04-10T06:53:08.926Z,72.70
2019-04-10T06:55:40.611Z,71.90
2019-04-10T06:58:13.753Z,71.70
2019-04-10T07:00:49.727Z,71.30
2019-04-10T07:03:23.889Z,71.20
2019-04-10T07:06:03.308Z,71.20
2019-04-10T07:08:26.000Z,70.70
2019-04-10T07:11:05.085Z,70.30
2019-04-10T07:13:32.261Z,69.30
2019-04-10T07:16:02.169Z,68.50
2019-04-10T07:18:32.434Z,68.80
2019-04-10T07:21:04.238Z,67.20
2019-04-10T07:23:38.698Z,66.60
2019-04-10T07:26:10.610Z,66.00
2019-04-10T07:28:43.894Z,65.00
2019-04-10T07:31:13.051Z,65.30
2019-04-10T07:33:50.026Z,64.80
2019-04-10T07:36:27.144Z,65.50
2019-04-10T07:38:57.506Z,64.30
2019-04-10T07:41:29.367Z,63.10
2019-04-10T07:43:58.954Z,62.30
2019-04-10T07:46:28.371Z,61.30
2019-04-10T07:48:59.108Z,61.90
2019-04-10T07:51:31.818Z,62.20
2019-04-10T07:54:02.313Z,60.70
2019-04-10T07:56:33.278Z,62.40
2019-04-10T07:59:04.603Z,63.40
2019-04-10T08:01:37.574Z,63.10
2019-04-10T08:04:20.866Z,61.40
2019-04-10T08:06:50.707Z,61.70
2019-04-10T08:09:22.335Z,60.10
2019-04-10T08:11:51.450Z,59.90
2019-04-10T08:14:22.349Z,60.00
2019-04-10T08:16:52.071Z,60.30
2019-04-10T08:19:25.378Z,59.30
2019-04-10T08:22:01.289Z,58.60
2019-04-10T08:24:35.155Z,58.90
2019-04-10T08:27:05.411Z,59.00
2019-04-10T08:29:36.450Z,59.10
2019-04-10T08:32:08.470Z,58.10
2019-04-10T08:34:40.017Z,59.90
2019-04-10T08:37:10.415Z,59.90
2019-04-10T08:39:47.517Z,60.70
2019-04-10T08:42:16.851Z,59.70
2019-04-10T08:44:49.132Z,59.90
2019-04-10T08:47:19.297Z,59.00
2019-04-10T08:49:52.840Z,59.50
2019-04-10T08:52:32.561Z,59.40
2019-04-10T08:55:01.983Z,60.70
2019-04-10T08:57:34.298Z,59.50
2019-04-10T09:00:05.801Z,58.60
2019-04-10T09:02:38.246Z,58.10
2019-04-10T09:05:11.238Z,56.40
2019-04-10T09:07:41.248Z,56.10
2019-04-10T09:10:18.490Z,56.20
2019-04-10T09:12:49.691Z,56.80
2019-04-10T09:15:21.435Z,56.30
2019-04-10T09:17:55.965Z,56.50
2019-04-10T09:20:26.567Z,57.00
2019-04-10T09:23:17.842Z,55.80
2019-04-10T09:25:33.383Z,55.50
2019-04-10T09:28:08.735Z,53.70
2019-04-10T09:30:40.683Z,53.60
2019-04-10T09:33:20.957Z,54.30
2019-04-10T09:35:45.035Z,52.90
2019-04-10T09:38:16.751Z,53.60
2019-04-10T09:40:46.723Z,52.60
2019-04-10T09:43:23.371Z,52.70
2019-04-10T09:45:55.794Z,51.80
2019-04-10T09:48:29.627Z,51.80
2019-04-10T09:51:06.090Z,49.40
2019-04-10T09:53:37.369Z,50.10
2019-04-10T09:56:07.350Z,49.60
2019-04-10T09:58:36.546Z,50.20
2019-04-10T10:01:13.310Z,50.10
2019-04-10T10:03:44.399Z,51.60
2019-04-10T10:06:24.292Z,51.10
2019-04-10T10:08:48.305Z,51.40
2019-04-10T10:11:18.747Z,52.30
2019-04-10T10:13:50.433Z,50.10
2019-04-10T10:16:20.997Z,48.90
2019-04-10T10:18:53.978Z,49.20
2019-04-10T10:21:26.125Z,48.90
2019-04-10T10:24:00.323Z,49.30
2019-04-10T10:26:44.532Z,49.20
2019-04-10T10:29:15.504Z,50.90
2019-04-10T10:31:46.770Z,50.40
2019-04-10T10:34:22.674Z,49.00
2019-04-10T10:36:53.258Z,50.50
2019-04-10T10:39:23.072Z,50.90
2019-04-10T10:41:54.451Z,49.50
2019-04-10T10:44:36.248Z,48.80
2019-04-10T10:46:57.922Z,49.40
2019-04-10T10:49:34.917Z,47.70
2019-04-10T10:52:09.148Z,47.90
2019-04-10T10:54:47.270Z,48.30
2019-04-10T10:57:22.725Z,46.60
2019-04-10T10:59:58.491Z,47.00
2019-04-10T11:02:30.174Z,47.50
2019-04-10T11:05:05.502Z,47.70
2019-04-10T11:07:35.242Z,48.30
2019-04-10T11:10:06.808Z,49.10
2019-04-10T11:12:35.961Z,48.30
2019-04-10T11:15:10.045Z,48.20
2019-04-10T11:17:40.390Z,47.90
2019-04-10T11:20:10.528Z,48.90
2019-04-10T11:22:42.694Z,48.60
2019-04-10T11:25:13.573Z,47.10
2019-04-10T11:27:44.198Z,45.90
2019-04-10T11:30:18.407Z,45.40
2019-04-10T11:32:52.475Z,45.90
2019-04-10T11:35:21.922Z,46.60
2019-04-10T11:37:53.748Z,46.70
2019-04-10T11:40:23.653Z,47.20
2019-04-10T11:43:02.417Z,47.60
2019-04-10T11:45:41.350Z,48.70
2019-04-10T11:54:18.044Z,48.40
2019-04-10T11:56:56.124Z,49.30
2019-04-10T12:02:11.997Z,46.60
2019-04-10T12:04:49.199Z,47.20
2019-04-10T12:07:52.997Z,47.00
2019-04-10T12:12:21.676Z,46.90
2019-04-10T12:14:52.246Z,47.60
2019-04-10T12:17:27.723Z,46.30
2019-04-10T12:20:00.583Z,45.90
2019-04-10T12:22:31.719Z,46.00
2019-04-10T12:25:02.847Z,46.30
2019-04-10T12:27:31.730Z,45.50
2019-04-10T12:30:09.262Z,45.20
2019-04-10T12:32:41.065Z,46.30
2019-04-10T12:35:10.938Z,46.90
2019-04-10T12:37:43.318Z,46.60
2019-04-10T12:40:13.915Z,47.50
2019-04-10T12:42:44.139Z,48.30
2019-04-10T12:45:15.766Z,48.20
2019-04-10T12:47:48.110Z,49.90
2019-04-10T12:50:20.411Z,49.00
2019-04-10T12:52:59.565Z,47.90
2019-04-10T12:55:33.330Z,48.80
2019-04-10T12:58:09.515Z,48.80
2019-04-10T13:00:44.591Z,48.10
2019-04-10T13:03:05.139Z,48.20
2019-04-10T13:05:38.222Z,48.30
2019-04-10T13:08:19.154Z,47.80
2019-04-10T13:10:39.866Z,48.60
2019-04-10T13:13:09.829Z,48.20
2019-04-10T13:15:39.522Z,48.90
2019-04-10T13:18:10.115Z,47.70
2019-04-10T13:20:39.993Z,48.10
2019-04-10T13:23:10.884Z,47.30
2019-04-10T13:25:42.767Z,47.10
2019-04-10T13:28:15.148Z,45.40
2019-04-10T13:30:53.245Z,47.40
2019-04-10T13:33:22.879Z,45.40
2019-04-10T13:35:52.025Z,45.30
2019-04-10T13:38:30.919Z,45.20
2019-04-10T13:40:56.954Z,45.80
2019-04-10T13:43:27.709Z,47.10
2019-04-10T13:45:56.823Z,46.60
2019-04-10T13:48:26.681Z,47.30
2019-04-10T13:50:57.025Z,47.00
2019-04-10T13:53:28.046Z,46.30
2019-04-10T13:55:57.223Z,46.00
2019-04-10T13:58:28.907Z,46.80
2019-04-10T14:01:03.145Z,44.80
2019-04-10T14:03:35.121Z,44.20
2019-04-10T14:06:05.356Z,44.70
2019-04-10T14:08:58.454Z,43.20
2019-04-10T14:11:11.118Z,43.50
2019-04-10T14:13:44.394Z,43.40
2019-04-10T14:16:15.026Z,42.20
2019-04-10T14:18:46.770Z,43.50
2019-04-10T14:21:17.358Z,42.20
2019-04-10T14:23:48.473Z,41.50
2019-04-10T14:26:42.192Z,40.10
2019-04-10T14:32:01.726Z,43.70
2019-04-10T14:34:31.841Z,43.80
2019-04-10T14:37:03.921Z,42.10
2019-04-10T14:39:33.594Z,42.10
2019-04-10T14:42:04.910Z,43.00
2019-04-10T14:44:36.862Z,42.10
2019-04-10T14:47:10.629Z,42.00
2019-04-10T14:49:40.931Z,41.00
2019-04-10T14:52:21.048Z,40.40
2019-04-10T14:54:54.398Z,40.50
2019-04-10T14:57:23.573Z,40.40
2019-04-10T14:59:53.681Z,40.30
2019-04-10T15:02:30.621Z,40.90
2019-04-10T15:05:02.132Z,40.60
2019-04-10T15:07:35.243Z,40.70
2019-04-10T15:10:07.625Z,41.50
2019-04-10T15:12:39.523Z,40.90
2019-04-10T15:15:08.653Z,42.50
2019-04-10T15:17:40.188Z,42.50
2019-04-10T15:20:11.071Z,42.10
2019-04-10T15:22:40.277Z,42.60
2019-04-10T15:25:10.851Z,42.70
2019-04-10T15:27:40.018Z,45.10
2019-04-10T15:30:12.866Z,45.10
2019-04-10T15:32:45.429Z,46.40
2019-04-10T15:35:16.530Z,45.30
2019-04-10T15:37:45.662Z,44.50
2019-04-10T15:40:24.523Z,43.40
2019-04-10T15:42:54.681Z,43.30
2019-04-10T15:45:24.055Z,43.30
2019-04-10T15:47:58.627Z,43.40
2019-04-10T15:50:30.921Z,43.40
2019-04-10T15:53:00.041Z,44.00
2019-04-10T15:55:30.609Z,42.90
2019-04-10T15:58:02.452Z,42.30
2019-04-10T16:00:35.739Z,42.00
2019-04-10T16:03:23.932Z,41.80
2019-04-10T16:05:55.733Z,42.50
2019-04-10T16:08:26.129Z,43.20
2019-04-10T16:11:11.861Z,42.60
2019-04-10T16:13:46.463Z,43.20
2019-04-10T16:16:24.080Z,43.20
2019-04-10T16:18:57.198Z,42.50
2019-04-10T16:21:31.870Z,43.40
2019-04-10T16:24:04.597Z,43.00
2019-04-10T16:26:35.737Z,42.50
2019-04-10T16:29:05.414Z,42.60
2019-04-10T16:31:41.562Z,42.70
2019-04-10T16:34:11.638Z,43.30
2019-04-10T16:36:41.669Z,44.20
2019-04-10T16:39:13.465Z,43.70
2019-04-10T16:41:46.848Z,43.90
2019-04-10T16:44:17.851Z,43.80
2019-04-10T16:46:50.707Z,43.90
2019-04-10T16:49:23.027Z,44.70
2019-04-10T16:51:56.698Z,43.60
2019-04-10T16:54:29.142Z,44.20
2019-04-10T16:57:16.713Z,44.30
2019-04-10T16:59:46.725Z,43.40
2019-04-10T17:02:28.421Z,43.10
2019-04-10T17:04:58.499Z,42.90
2019-04-10T17:07:27.752Z,43.30
2019-04-10T17:10:12.880Z,44.60
2019-04-10T17:12:35.914Z,45.50
2019-04-10T17:15:08.374Z,46.00
2019-04-10T17:17:38.830Z,47.40
2019-04-10T17:20:14.050Z,47.60
2019-04-10T17:22:49.261Z,47.90
2019-04-10T17:25:20.117Z,48.60
2019-04-10T17:27:50.135Z,49.50
2019-04-10T17:30:20.298Z,49.90
2019-04-10T17:32:49.420Z,50.10
2019-04-10T17:35:23.597Z,50.70
2019-04-10T17:38:00.173Z,51.20
2019-04-10T17:40:40.686Z,51.10
2019-04-10T17:43:03.143Z,51.30
2019-04-10T17:45:32.645Z,51.30
2019-04-10T17:48:05.191Z,51.80
2019-04-10T17:50:39.356Z,52.30
2019-04-10T17:53:09.594Z,52.40
2019-04-10T17:55:44.260Z,52.50
2019-04-10T17:58:17.089Z,52.70
2019-04-10T18:00:49.601Z,53.40
2019-04-10T18:03:21.593Z,53.30
2019-04-10T18:05:53.087Z,53.60
2019-04-10T18:08:26.376Z,54.00
2019-04-10T18:11:00.265Z,54.50
2019-04-10T18:13:38.396Z,54.20
2019-04-10T18:16:10.636Z,54.10
2019-04-10T18:18:42.141Z,53.70
2019-04-10T18:21:13.209Z,54.00
2019-04-10T18:23:43.929Z,54.20
2019-04-10T18:26:14.123Z,54.30
2019-04-10T18:28:43.889Z,54.70
2019-04-10T18:31:13.401Z,55.00
2019-04-10T18:33:42.630Z,55.70
2019-04-10T18:36:13.398Z,56.20
2019-04-10T18:38:45.958Z,56.20
2019-04-10T18:41:15.768Z,55.00
2019-04-10T18:43:46.644Z,55.40
2019-04-10T18:46:18.269Z,55.10
2019-04-10T18:48:48.559Z,55.40
2019-04-10T18:51:19.299Z,55.40
2019-04-10T18:53:49.918Z,55.70
2019-04-10T18:56:20.861Z,56.40
2019-04-10T18:59:12.793Z,56.10
2019-04-10T19:01:49.463Z,56.00
2019-04-10T19:04:25.542Z,56.20
2019-04-10T19:06:59.090Z,56.30
2019-04-10T19:09:32.524Z,57.10
2019-04-10T19:12:02.483Z,57.50
2019-04-10T19:14:36.209Z,58.50
2019-04-10T19:17:06.759Z,57.90
2019-04-10T19:19:40.371Z,58.40
2019-04-10T19:22:13.110Z,59.10
2019-04-10T19:24:44.104Z,60.10
2019-04-10T19:27:20.146Z,59.30
2019-04-10T19:29:52.840Z,60.00
2019-04-10T19:32:25.304Z,61.50
2019-04-10T19:34:57.255Z,61.70
2019-04-10T19:37:33.978Z,62.80
2019-04-10T19:40:09.070Z,62.50
2019-04-10T19:42:42.190Z,63.00
2019-04-10T19:45:15.251Z,63.80
2019-04-10T19:47:46.367Z,63.80
2019-04-10T19:50:15.652Z,64.50
2019-04-10T19:52:44.793Z,64.30
2019-04-10T19:55:13.884Z,64.00
2019-04-10T19:57:45.657Z,65.20
2019-04-10T20:00:15.181Z,65.60
2019-04-10T20:02:46.959Z,65.40
2019-04-10T20:05:18.255Z,65.60
2019-04-10T20:07:49.157Z,66.00
2019-04-10T20:10:19.793Z,66.90
2019-04-10T20:12:49.237Z,67.20
2019-04-10T20:15:20.544Z,65.80
2019-04-10T20:17:50.420Z,65.30
2019-04-10T20:20:23.562Z,65.30
2019-04-10T20:22:53.603Z,65.00
2019-04-10T20:25:24.186Z,64.50
2019-04-10T20:27:53.701Z,64.80
2019-04-10T20:30:24.475Z,64.80
2019-04-10T20:32:54.435Z,65.10
2019-04-10T20:35:26.477Z,65.50
2019-04-10T20:37:55.689Z,65.50
2019-04-10T20:40:25.618Z,65.80
2019-04-10T20:42:54.814Z,65.70
2019-04-10T20:45:27.046Z,66.10
2019-04-10T20:48:00.555Z,65.90
2019-04-10T20:50:34.231Z,65.60
2019-04-10T20:53:04.052Z,65.90
2019-04-10T20:55:39.793Z,66.60
2019-04-10T20:58:13.430Z,66.70
2019-04-10T21:00:49.650Z,66.90
2019-04-10T21:03:21.805Z,67.30
2019-04-10T21:05:58.386Z,67.60
2019-04-10T21:08:25.499Z,67.50
2019-04-10T21:10:59.100Z,68.50
2019-04-10T21:13:29.888Z,69.40
2019-04-10T21:16:09.266Z,69.30
2019-04-10T21:21:26.884Z,68.70
2019-04-10T21:23:57.620Z,69.50
2019-04-10T21:26:26.722Z,69.70
2019-04-10T21:28:57.989Z,70.00
2019-04-10T21:31:45.830Z,71.30
2019-04-10T21:34:28.413Z,71.40
2019-04-10T21:37:08.601Z,71.80
2019-04-10T21:39:39.946Z,73.00
2019-04-10T21:42:20.061Z,72.40
2019-04-10T21:44:49.263Z,72.80
2019-04-10T21:47:21.526Z,73.50
2019-04-10T21:49:53.301Z,74.00
2019-04-10T21:52:25.091Z,75.00
2019-04-10T21:55:00.905Z,75.50
2019-04-10T21:57:32.302Z,74.20
2019-04-10T22:00:03.678Z,73.50
2019-04-10T22:02:35.721Z,73.80
2019-04-10T22:05:05.990Z,73.60
2019-04-10T22:07:50.818Z,73.60
2019-04-10T22:10:34.275Z,74.10
2019-04-10T22:13:04.103Z,74.10
2019-04-10T22:15:42.421Z,73.90
2019-04-10T22:18:12.729Z,73.90
2019-04-10T22:20:43.762Z,74.60
2019-04-10T22:23:12.991Z,74.80
2019-04-10T22:25:43.761Z,75.70
2019-04-10T22:28:15.626Z,75.60
2019-04-10T22:30:45.713Z,76.00
2019-04-10T22:33:16.653Z,76.80
2019-04-10T22:35:46.360Z,76.60
2019-04-10T22:38:15.478Z,76.30
2019-04-10T22:40:44.585Z,76.50
2019-04-10T22:43:15.826Z,77.20
2019-04-10T22:45:45.093Z,77.90
2019-04-10T22:48:16.826Z,78.20
2019-04-10T22:50:47.240Z,77.90
2019-04-10T22:53:21.378Z,78.20
2019-04-10T22:55:50.640Z,78.30
2019-04-10T22:58:21.222Z,78.20
2019-04-10T23:00:50.942Z,78.10
2019-04-10T23:03:22.312Z,77.90
2019-04-10T23:05:51.534Z,77.80
2019-04-10T23:08:20.633Z,78.60
2019-04-10T23:10:53.083Z,78.80
2019-04-10T23:13:23.723Z,79.00
2019-04-10T23:15:52.889Z,79.50
2019-04-10T23:18:21.990Z,79.70
2019-04-10T23:20:51.993Z,79.90
2019-04-10T23:23:25.265Z,80.40
2019-04-10T23:25:54.413Z,80.20
2019-04-10T23:28:25.393Z,80.30
2019-04-10T23:30:54.513Z,80.50
2019-04-10T23:33:23.896Z,81.50
2019-04-10T23:35:54.047Z,82.80
2019-04-10T23:38:23.644Z,84.00
2019-04-10T23:40:53.473Z,84.90
2019-04-10T23:43:24.224Z,86.10
2019-04-10T23:45:53.669Z,86.70
2019-04-10T23:48:24.632Z,86.30
2019-04-10T23:50:54.862Z,87.70
2019-04-10T23:53:26.590Z,87.90
2019-04-10T23:55:56.570Z,88.20
2019-04-10T23:58:26.384Z,89.00
